Winter Park, Florida
Current Conditions -  °F | °C
As of 7:53 PM on Saturday 20 Dec 2014 (Local Time) from KORL Reporting Station
Broken Clouds Broken Clouds  
Wind Chill: 67°   Ceiling: 11000
Heat Index: 67°   Visibility: 10mi
Dew Point: 62°   Wind: 6mph
Humidity: 84%   Direction: 80°E
Pressure: 30.08"   Gusts: NA
Location:  28.59°N, 81.35°W
Report Text: KORL 210053Z 08005KT 10SM FEW090 BKN110 19/17 A3008 RMK AO2 SLP190 T01940167
Loading
Personal Weather Stations






























Interactive Weather Map New forecast layout! Learn more

10-Day Weather Forecast

Advertisements
Track Severe Weather on mobile